Airfield :
LOGIN :

Register | Disclaimer

   EN    FR    IT 

 










Legend :    VFR   Marginal VFR   IFR   Intensive IFR   Very Intensive IFR
Visi :
Ceiling :
>= 8 km
>= 3000ft
5 to 8 km
1000 to 3000 ft
1500m to 5 km
500 to 1000 ft
800 to 1500m
200 to 500 ft
< 800m
< 200 ft
Symbols :   Thunderstorms  Fog  Heavy snow  Heavy precipitations  Wind > 20 kt
SIGMETs :     Misc.  Thunderstorms  Icing  Turbulence  Mountain Waves  Volcanic Ashes






- Airport Elevation : 231 ft
- IATA code : WTN


EGXW - RAF Waddington

CURRENT METAR :
  • 280703Z 12004KT 0500 FG BKN002 03/02 Q1006 RED NOSIG RMK RED RED

EXPIRED METARs :
  • 280650Z 21002KT 6000 BR FEW007 05/04 Q1006 TEMPO 0500 FG BKN000 RMK WHT TEMPO RED
  • 280550Z AUTO 24008KT 9000 BR NCD 06/06 Q1006
  • 280450Z AUTO 23008KT 9999 NCD 06/06 Q1006

TAF TAF EGXW
Valid from the 28 at 06:00 until the 29 at 00:00 UTC


280431Z 2806/2824 19004KT 8000 BR FEW004
PROB40
TEMPO 2806/2810 0500 FG VV///
PROB40
TEMPO 2810/2812 3000 BR BKN006
BECMG 2811/2814 9999 NSW BKN010
PROB30
TEMPO 2812/2815 SCT006
PROB30 2817/2821 5000 BR BKN015
PROB30 2821/2824 0800 FG



MET'MAP, your aeronautical weather chart ! - Copyright ORBIFLY December 2007 - Disclaimer

ORBIFLY MET'MAP TEAM :

Programming & Development : Alexandra Zaïnal
Original concept : Baudouin d'Aumeries
Technical & hardware support : Manuel Goepfert
Assistance : Marc-Olivier Méhu




SOURCES & CREDITS :

   NOAA